Terminal Aerodrome Forecast
Issued by NWS

Home | Current Version | Previous Version | Text Only | Print | Product List | Glossary On
Versions: 1 2 3 4 5 6 7 8 9 10 11 12 13
000
FTUS45 KFGZ 230500
TAFGCN
TAF
KGCN 230536Z 2306/2406 VRB04KT P6SM SCT100
     FM231800 20010KT P6SM BKN090
     FM240230 VRB03KT P6SM BKN100=

USA.gov is the U.S. government's official web portal to all federal, state and local government web resources and services.